Nearby METAR Reports

 

KIND - Indianapolis, Indiana, USA
Distance from station: SW 6mi, 9km
Updated: Sep 28 2020 11:54am
Light rain, Mist, Overcast
Light rain, Mist, Overcast
 Wind from WNW
Wind: WNW 12 mph , 19 km/h
Temperature: 55°F , 13°C
Dew Point: 54°F , 12°C
Humidity: 94%
Barometer: 29.78 inHg , 1008.5 hPa
Summary: Light rain, Mist
Clouds: Overcast
Visibility: 2 miles , 3 km
Cloud details: Overcast 800 ft
2020/09/28 15:54 KIND 281554Z 30010KT 2SM -RA BR OVC008 13/12 A2978 RMK AO2 RAB28 SLP082 P0000 T01280122
KEYE - Indianapolis, Indiana, USA
Distance from station: NW 5mi, 8km
Updated: Sep 28 2020 11:53am
Light rain, Mist, Overcast
Light rain, Mist, Overcast
 Wind from NW
Wind: NW 10 mph , 17 km/h
Temperature: 55°F , 13°C
Dew Point: 54°F , 12°C
Humidity: 94%
Barometer: 29.77 inHg , 1008.1 hPa
Summary: Light rain, Mist
Clouds: Overcast
Visibility: 4 miles , 6 km
Cloud details: Overcast 600 ft
2020/09/28 15:53 KEYE 281553Z AUTO 31009KT 4SM -RA BR OVC006 13/12 A2977 RMK AO2 RAB28 CIG 005V009 SLP078 P0001 T01330117 $
 
KTYQ - Indianapolis Exc, Indiana, USA
Distance from station: N 17mi, 28km
Updated: Sep 28 2020 11:55am
Heavy drizzle, Overcast
Heavy drizzle, Overcast
 Wind from WNW
Wind: WNW 8 mph , 13 km/h
Temperature: 54°F , 12°C
Dew Point: 54°F , 12°C
Humidity: 100%
Barometer: 29.79 inHg , 1008.8 hPa
Summary: Heavy Drizzle
Clouds: Overcast
Visibility: 2 1/2 miles , 4 km
Cloud details: Overcast 600 ft
2020/09/28 15:55 KTYQ 281555Z AUTO 30007KT 2 1/2SM +DZ OVC006 12/12 A2979 RMK AO2 P0001 T01200115
KGEZ - Shelbyville, Indiana, USA
Distance from station: ESE 27mi, 43km
Updated: Sep 28 2020 11:53am
Overcast
Overcast
 Wind from WNW
Wind: WNW 10 mph , 17 km/h
Temperature: 61°F , 16°C
Dew Point: 54°F , 12°C
Humidity: 77%
Barometer: 29.76 inHg , 1007.8 hPa
Clouds: Overcast
Visibility: 10 miles , 16 km
Cloud details: Overcast 1000 ft
2020/09/28 15:53 KGEZ 281553Z AUTO 30009KT 10SM OVC010 16/12 A2976 RMK AO2 RAE1459 SLP073 P0000 T01560122
 
KAID - Anderson Municip, Indiana, USA
Distance from station: NE 40mi, 64km
Updated: Sep 28 2020 10:59am
Overcast
Overcast
 Wind from WNW
Wind: WNW 3 mph , 6 km/h, Gust: 21 mph , 33 km/h
Temperature: 57°F , 14°C
Dew Point: 55°F , 13°C
Humidity: 94%
Barometer: 29.76 inHg , 1007.8 hPa
Clouds: Overcast
Visibility: 10 miles , 16 km
Cloud details: Overcast 900 ft
2020/09/28 14:59 KAID 281459Z 30003G18KT 10SM OVC009 14/13 A2976
KBAK - Columbus/Balkala, Indiana, USA
Distance from station: SSE 40mi, 64km
Updated: Sep 28 2020 12:10pm
Light rain, Mist, Overcast
Light rain, Mist, Overcast
 Wind from NW
Wind: NW 10 mph , 17 km/h
Temperature: 55°F , 13°C
Dew Point: 54°F , 12°C
Humidity: 94%
Barometer: 29.76 inHg , 1007.8 hPa
Summary: Light rain, Mist
Clouds: Overcast
Visibility: 5 miles , 8 km
Cloud details: Overcast 800 ft
2020/09/28 16:10 KBAK 281610Z 31009KT 5SM -RA BR OVC008 13/12 A2976 RMK RA B08
 
KBMG - Bloomington, Indiana, USA
Distance from station: SSW 48mi, 78km
Updated: Sep 28 2020 12:09pm
Light rain, Mist, Overcast
Light rain, Mist, Overcast
 Wind from NW
Wind: NW 6 mph , 9 km/h
Temperature: 57°F , 14°C
Dew Point: 54°F , 12°C
Humidity: 88%
Barometer: 29.79 inHg , 1008.8 hPa
Summary: Light rain, Mist
Clouds: Overcast
Visibility: 4 miles , 6 km
Cloud details: Mostly Cloudy 700 ft
Overcast 1500 ft
2020/09/28 16:09 KBMG 281609Z 31005KT 4SM -RA BR BKN007 OVC015 14/12 A2979 RMK AO2 P0001 T01390117
KOKK - Kokomo, Indiana, USA
Distance from station: N 53mi, 85km
Updated: Sep 28 2020 11:56am
Overcast
Overcast
 Wind from NW
Wind: NW 15 mph , 24 km/h
Temperature: 54°F , 12°C
Dew Point: 54°F , 12°C
Humidity: 100%
Barometer: 29.78 inHg , 1008.5 hPa
Clouds: Overcast
Visibility: 7 miles , 11 km
Cloud details: Overcast 600 ft
2020/09/28 15:56 KOKK 281556Z AUTO 31013KT 7SM OVC006 12/12 A2978 RMK AO2 RAE54 CIG 003V010 SLP083 P0005 T01220122